CW8164 Weather Reports


Display with metric or nautical units.
time (UTC)temp
F
wind
direction
speed
MPH
gust
MPH
rain 1hr
in
rain 24hr
in
rain mn
in
humidity
%
barometer
mb
20171117225406 49 207 1.0 6.0 0.00 0.45 0.24 83 1023.2
20171117222906 48 243 2.0 5.0 0.00 0.46 0.24 84 1022.8
20171117222406 48 221 2.0 5.0 0.00 0.46 0.24 84 1022.8
20171117221406 48 175 1.0 6.0 0.00 0.46 0.24 83 1022.7
20171117220906 48 216 2.0 9.0 0.01 0.46 0.24 84 1022.6
20171117215406 49 219 1.0 6.0 0.01 0.46 0.24 85 1022.6
20171117214906 49 188 2.0 8.0 0.01 0.46 0.24 85 1022.6
20171117214406 48 209 4.0 8.0 0.01 0.46 0.24 85 1022.5
20171117212406 47 213 1.0 5.0 0.01 0.46 0.24 90 1022.4
20171117210406 47 179 2.0 6.0 0.00 0.45 0.23 88 1022.4
20171117205907 47 208 2.0 6.0 0.00 0.45 0.23 86 1022.3
20171117203906 47 192 2.0 8.0 0.00 0.45 0.23 88 1022.2
20171117203407 46 126 0.0 7.0 0.00 0.45 0.23 89 1022.2
20171117202406 46 212 4.0 7.0 0.00 0.45 0.23 87 1022.1
20171117201407 46 202 2.0 7.0 0.00 0.45 0.23 89 1022.0
20171117200906 46 274 3.0 7.0 0.00 0.45 0.23 88 1022.0
20171117195906 46 160 3.0 6.0 0.00 0.45 0.23 90 1021.9
20171117195406 46 209 1.0 6.0 0.00 0.45 0.23 92 1021.9
20171117194406 45 174 1.0 5.0 0.00 0.45 0.23 92 1021.7
20171117193406 45 295 1.0 3.0 0.00 0.45 0.23 92 1021.7
20171117191906 45 166 2.0 6.0 0.00 0.45 0.23 92 1021.6
20171117191406 45 271 1.0 6.0 0.00 0.45 0.23 94 1021.5
20171117190906 45 171 2.0 5.0 0.00 0.45 0.23 93 1021.4
20171117190406 45 199 1.0 3.0 0.00 0.45 0.23 93 1021.4
20171117185406 44 201 1.0 6.0 0.00 0.45 0.23 93 1021.3
20171117184906 44 173 2.0 6.0 0.00 0.45 0.23 95 1021.2
20171117184406 44 258 1.0 3.0 0.00 0.45 0.23 95 1021.3
20171117183906 44 345 1.0 3.0 0.00 0.45 0.23 95 1021.1
20171117182405 43 173 2.0 7.0 0.00 0.45 0.23 95 1020.8
20171117181906 44 178 2.0 7.0 0.00 0.45 0.23 95 1020.8
20171117181406 43 178 3.0 7.0 0.00 0.45 0.23 95 1020.5
20171117180406 43 161 0.0 3.0 0.00 0.45 0.23 96 1020.3
20171117174906 43 109 1.0 3.0 0.00 0.45 0.23 96 1020.0
20171117174406 43 109 2.0 3.0 0.01 0.46 0.23 96 1019.9
20171117173405 42 202 2.0 3.0 0.01 0.46 0.23 96 1019.8
20171117172906 42 171 1.0 3.0 0.01 0.46 0.23 96 1019.7
20171117172406 42 166 1.0 3.0 0.01 0.46 0.23 96 1019.6
20171117171406 42 183 2.0 6.0 0.01 0.46 0.23 96 1019.6
20171117170405 42 195 2.0 6.0 0.01 0.46 0.23 96 1019.5
20171117165406 42 190 2.0 3.0 0.01 0.46 0.23 96 1019.3
20171117163906 42 172 2.0 3.0 0.00 0.45 0.22 96 1019.0
20171117162906 42 201 2.0 3.0 0.00 0.45 0.22 97 1018.7
20171117162406 42 200 1.0 3.0 0.00 0.45 0.22 97 1018.6
20171117161906 42 199 2.0 3.0 0.01 0.45 0.22 97 1018.5
20171117160905 41 178 1.0 3.0 0.04 0.45 0.22 96 1018.4
20171117155906 41 213 2.0 3.0 0.05 0.45 0.22 96 1018.2
20171117155406 41 180 2.0 6.0 0.06 0.45 0.22 96 1018.1
20171117154406 41 190 1.0 8.0 0.06 0.45 0.22 96 1017.9
20171117153906 41 169 4.0 8.0 0.06 0.45 0.22 96 1017.8
20171117153406 41 221 3.0 8.0 0.06 0.45 0.22 96 1017.6
20171117152906 41 184 2.0 7.0 0.06 0.45 0.22 96 1017.6
20171117151406 41 186 3.0 6.0 0.03 0.42 0.19 96 1017.3
20171117150905 41 260 2.0 5.0 0.02 0.41 0.18 96 1017.2
20171117145406 41 221 0.0 6.0 0.00 0.39 0.16 96 1016.7
20171117144906 41 203 1.0 3.0 0.00 0.39 0.16 96 1016.5
20171117144405 41 197 2.0 3.0 0.00 0.39 0.16 96 1016.5
20171117143906 41 194 1.0 7.0 0.00 0.39 0.16 96 1016.4
20171117142406 41 202 2.0 8.0 0.03 0.39 0.16 96 1016.0
20171117141405 41 211 2.0 5.0 0.05 0.39 0.16 97 1015.7
20171117140406 41 224 0.0 3.0 0.05 0.39 0.16 96 1015.6
20171117135406 41 222 1.0 3.0 0.05 0.39 0.16 96 1015.4
20171117134906 41 165 1.0 5.0 0.05 0.39 0.16 96 1015.4
20171117133405 42 195 2.0 5.0 0.05 0.38 0.15 96 1015.4
20171117132905 42 224 1.0 6.0 0.05 0.37 0.14 96 1015.3
20171117131406 41 214 3.0 5.0 0.05 0.34 0.11 96 1014.8
20171117130905 41 207 1.0 3.0 0.06 0.34 0.11 96 1014.7
20171117125906 41 179 2.0 3.0 0.06 0.34 0.11 96 1014.5
20171117124406 41 164 2.0 3.0 0.08 0.34 0.11 96 1014.1
20171117123906 41 172 0.0 3.0 0.08 0.34 0.11 96 1014.1
20171117123406 41 186 2.0 3.0 0.08 0.33 0.10 96 1014.1
20171117122906 42 201 2.0 6.0 0.07 0.32 0.09 96 1014.0
20171117122406 42 180 3.0 6.0 0.06 0.31 0.08 96 1014.0
20171117121906 42 204 2.0 5.0 0.05 0.30 0.07 96 1014.0
20171117121406 42 161 1.0 5.0 0.04 0.29 0.06 96 1013.9
20171117115906 42 220 2.0 6.0 0.03 0.29 0.05 96 1013.6
20171117114905 42 180 1.0 5.0 0.01 0.27 0.03 96 1013.4
20171117114406 42 213 1.0 5.0 0.01 0.27 0.03 96 1013.4
20171117113406 42 208 2.0 8.0 0.00 0.26 0.02 96 1013.3
20171117112906 42 182 3.0 7.0 0.00 0.26 0.02 96 1013.3
20171117111906 42 173 2.0 6.0 0.00 0.26 0.02 96 1013.1
20171117111406 42 205 2.0 6.0 0.01 0.26 0.02 96 1013.0
20171117110906 42 180 3.0 6.0 0.00 0.25 0.01 96 1013.0
20171117105904 42 185 3.0 7.0 0.02 0.24 0.02 96 1012.8
20171117105404 42 181 3.0 5.0 0.02 0.24 0.02 96 1012.8
20171117104904 42 252 1.0 3.0 0.02 0.24 0.02 96 1012.5
20171117101905 42 275 0.0 2.0 0.02 0.24 0.02 96 1012.2
20171117100405 42 194 1.0 3.0 0.01 0.23 0.01 97 1011.9
20171117095405 42 174 0.0 3.0 0.00 0.22 0.00 97 1011.6
20171117094904 42 174 2.0 3.0 0.00 0.22 0.00 97 1011.5
20171117093904 42 219 1.0 2.0 0.00 0.23 0.00 97 1011.3
20171117093404 42 184 0.0 1.0 0.00 0.23 0.00 97 1011.3
20171117092904 42 184 0.0 1.0 0.00 0.23 0.00 97 1011.3
20171117092404 42 184 0.0 1.0 0.00 0.23 0.00 97 1011.2
20171117090404 41 201 1.0 3.0 0.00 0.24 0.00 97 1010.9
20171117085404 41 97 0.0 1.0 0.00 0.24 0.00 97 1010.9
20171117084404 41 97 0.0 1.0 0.00 0.24 0.00 97 1010.8
20171117082904 41 97 0.0 1.0 0.00 0.24 0.00 96 1010.7
20171117082404 41 97 0.0 1.0 0.00 0.25 0.00 96 1010.7
20171117081904 41 97 0.0 1.0 0.00 0.25 0.00 96 1010.7
20171117081404 41 97 0.0 1.0 0.01 0.25 0.00 96 1010.7
20171117080405 41 97 0.0 2.0 0.02 0.25 0.00 96 1010.5
20171117075904 41 97 0.0 2.0 0.02 0.25 0.25 96 1010.5
20171117075404 41 96 1.0 2.0 0.02 0.25 0.25 95 1010.4
20171117074404 41 185 0.0 0.0 0.03 0.25 0.25 95 1010.1
20171117073904 41 185 0.0 2.0 0.03 0.25 0.25 95 1010.0
20171117072905 41 185 0.0 0.0 0.04 0.25 0.25 95 1009.9
20171117072404 41 185 0.0 1.0 0.04 0.25 0.25 95 1009.8
20171117071905 41 185 0.0 2.0 0.04 0.25 0.25 95 1009.8
20171117071404 42 185 1.0 6.0 0.04 0.25 0.25 95 1009.6
20171117070903 42 185 0.0 6.0 0.03 0.24 0.24 95 1009.8
20171117065404 42 207 3.0 6.0 0.02 0.23 0.23 96 1009.6
20171117063904 42 215 1.0 2.0 0.01 0.23 0.22 96 1009.5
20171117063405 42 216 0.0 2.0 0.00 0.22 0.21 96 1009.5
20171117062904 42 216 1.0 2.0 0.00 0.23 0.21 96 1009.4
20171117062403 42 252 0.0 3.0 0.01 0.23 0.21 96 1009.2
20171117061404 42 250 1.0 2.0 0.03 0.23 0.21 96 1009.0
20171117060404 42 250 1.0 2.0 0.04 0.23 0.21 96 1008.9
20171117055904 42 250 1.0 2.0 0.04 0.24 0.21 96 1008.9
20171117054904 42 196 0.0 2.0 0.05 0.24 0.21 96 1008.6
20171117054404 42 196 1.0 3.0 0.05 0.24 0.21 96 1008.5
20171117053404 42 234 1.0 3.0 0.06 0.25 0.21 96 1008.5
20171117052405 43 187 1.0 3.0 0.05 0.24 0.20 95 1008.6
20171117051404 43 186 1.0 3.0 0.03 0.22 0.18 95 1008.5
20171117050405 43 244 2.0 8.0 0.02 0.21 0.17 95 1008.4
20171117045904 43 198 0.0 3.0 0.02 0.22 0.17 95 1008.2
20171117045404 43 209 1.0 3.0 0.01 0.21 0.16 95 1008.1
20171117044904 42 202 1.0 3.0 0.01 0.21 0.16 95 1008.1
20171117043404 42 182 0.0 1.0 0.00 0.21 0.15 95 1007.9
20171117042904 42 182 0.0 1.0 0.00 0.21 0.15 95 1007.8
20171117041904 43 182 0.0 3.0 0.00 0.21 0.15 95 1007.8
20171117041405 43 182 0.0 3.0 0.00 0.22 0.15 95 1007.7
20171117035904 43 175 0.0 3.0 0.01 0.22 0.15 95 1007.6
20171117034904 43 229 0.0 3.0 0.02 0.23 0.15 94 1007.5
20171117034404 43 229 1.0 3.0 0.02 0.23 0.15 95 1007.5
20171117033404 43 214 0.0 3.0 0.03 0.23 0.15 94 1007.6
20171117032903 43 233 1.0 3.0 0.03 0.23 0.15 94 1007.5
20171117032404 43 284 2.0 3.0 0.03 0.23 0.15 94 1007.5
20171117031904 43 232 1.0 5.0 0.03 0.23 0.15 94 1007.4
20171117031404 43 188 1.0 5.0 0.03 0.24 0.15 94 1007.3
20171117030405 43 164 1.0 5.0 0.02 0.23 0.14 95 1007.2
20171117025916 43 195 0.0 5.0 0.02 0.23 0.14 95 1007.2
20171117025415 43 165 2.0 5.0 0.02 0.23 0.14 94 1007.2
20171117024916 43 187 2.0 5.0 0.01 0.22 0.13 95 1007.2
20171117023415 43 86 0.0 0.0 0.00 0.22 0.12 95 1007.0
20171117022416 43 86 0.0 1.0 0.00 0.22 0.12 94 1007.0
20171117021915 43 86 1.0 2.0 0.00 0.22 0.12 94 1006.9
20171117020915 43 86 0.0 2.0 0.00 0.23 0.12 95 1006.9
20171117015915 43 85 0.0 1.0 0.00 0.23 0.12 94 1006.7
20171117014416 43 110 1.0 2.0 0.01 0.24 0.12 94 1006.6
20171117013916 43 93 1.0 3.0 0.01 0.24 0.12 94 1006.6
20171117012416 43 108 1.0 3.0 0.01 0.24 0.12 94 1006.4
20171117011415 43 61 2.0 3.0 0.02 0.24 0.12 94 1006.3
20171117010916 43 121 1.0 2.0 0.02 0.24 0.12 94 1006.3
20171117004415 43 78 0.0 2.0 0.02 0.24 0.11 94 1006.2
20171117003916 43 78 0.0 1.0 0.03 0.24 0.11 94 1006.2
20171117001916 43 78 0.0 3.0 0.05 0.25 0.11 94 1006.3
20171117001416 43 206 1.0 3.0 0.04 0.24 0.10 93 1006.2
20171117000416 43 130 0.0 3.0 0.04 0.24 0.10 93 1006.0
20171116235915 43 90 1.0 3.0 0.03 0.23 0.09 92 1006.0
20171116233915 44 247 0.0 3.0 0.02 0.23 0.08 91 1005.8
20171116232916 44 136 1.0 6.0 0.02 0.23 0.07 90 1005.6
20171116231916 45 183 1.0 7.0 0.01 0.24 0.06 89 1005.5
20171116230916 45 150 2.0 3.0 0.01 0.27 0.06 89 1005.3
20171116230415 45 91 1.0 3.0 0.01 0.28 0.06 89 1005.3